sensor_id;sensor_type;location;lat;lon;timestamp;P1;durP1;ratioP1;P2;durP2;ratioP2
37507;SDS011;23360;46.936;15.514;2024-01-06T00:01:11;35.72;;;14.82;;
37507;SDS011;23360;46.936;15.514;2024-01-06T00:03:40;29.70;;;13.63;;
37507;SDS011;23360;46.936;15.514;2024-01-06T00:06:07;26.95;;;11.43;;
37507;SDS011;23360;46.936;15.514;2024-01-06T00:08:34;35.72;;;13.57;;
37507;SDS011;23360;46.936;15.514;2024-01-06T00:11:00;35.33;;;11.77;;
37507;SDS011;23360;46.936;15.514;2024-01-06T00:13:29;30.67;;;12.20;;
37507;SDS011;23360;46.936;15.514;2024-01-06T00:15:56;31.20;;;11.50;;
37507;SDS011;23360;46.936;15.514;2024-01-06T00:18:22;30.15;;;12.00;;
37507;SDS011;23360;46.936;15.514;2024-01-06T00:20:49;38.22;;;12.48;;
37507;SDS011;23360;46.936;15.514;2024-01-06T00:23:16;47.08;;;12.55;;
37507;SDS011;23360;46.936;15.514;2024-01-06T00:25:42;34.90;;;12.38;;
37507;SDS011;23360;46.936;15.514;2024-01-06T00:28:09;32.72;;;13.55;;
37507;SDS011;23360;46.936;15.514;2024-01-06T00:30:36;25.10;;;11.25;;
37507;SDS011;23360;46.936;15.514;2024-01-06T00:33:03;23.50;;;10.40;;
37507;SDS011;23360;46.936;15.514;2024-01-06T00:35:30;32.72;;;11.60;;
37507;SDS011;23360;46.936;15.514;2024-01-06T00:37:57;33.28;;;10.55;;
37507;SDS011;23360;46.936;15.514;2024-01-06T00:40:27;31.67;;;10.38;;
37507;SDS011;23360;46.936;15.514;2024-01-06T00:42:54;33.13;;;11.43;;
37507;SDS011;23360;46.936;15.514;2024-01-06T00:45:20;31.17;;;11.07;;
37507;SDS011;23360;46.936;15.514;2024-01-06T00:47:49;30.92;;;10.48;;
37507;SDS011;23360;46.936;15.514;2024-01-06T00:50:17;27.77;;;10.15;;
37507;SDS011;23360;46.936;15.514;2024-01-06T00:52:45;36.80;;;11.13;;
37507;SDS011;23360;46.936;15.514;2024-01-06T00:55:12;32.08;;;11.38;;
37507;SDS011;23360;46.936;15.514;2024-01-06T00:57:38;34.88;;;13.00;;
37507;SDS011;23360;46.936;15.514;2024-01-06T01:00:05;31.15;;;13.15;;
37507;SDS011;23360;46.936;15.514;2024-01-06T01:02:32;29.95;;;12.05;;
37507;SDS011;23360;46.936;15.514;2024-01-06T01:05:00;31.75;;;10.82;;
37507;SDS011;23360;46.936;15.514;2024-01-06T01:07:28;29.73;;;10.93;;
37507;SDS011;23360;46.936;15.514;2024-01-06T01:09:55;39.30;;;11.00;;
37507;SDS011;23360;46.936;15.514;2024-01-06T01:12:23;31.73;;;10.45;;
37507;SDS011;23360;46.936;15.514;2024-01-06T01:14:50;33.72;;;15.25;;
37507;SDS011;23360;46.936;15.514;2024-01-06T01:17:17;31.98;;;14.07;;
37507;SDS011;23360;46.936;15.514;2024-01-06T01:19:44;40.13;;;13.98;;
37507;SDS011;23360;46.936;15.514;2024-01-06T01:22:11;39.63;;;13.27;;
37507;SDS011;23360;46.936;15.514;2024-01-06T01:24:38;35.88;;;13.68;;
37507;SDS011;23360;46.936;15.514;2024-01-06T01:27:05;31.00;;;12.25;;
37507;SDS011;23360;46.936;15.514;2024-01-06T01:29:31;27.05;;;11.73;;
37507;SDS011;23360;46.936;15.514;2024-01-06T01:31:58;37.55;;;11.82;;
37507;SDS011;23360;46.936;15.514;2024-01-06T01:34:25;31.02;;;12.70;;
37507;SDS011;23360;46.936;15.514;2024-01-06T01:36:52;31.60;;;12.55;;
37507;SDS011;23360;46.936;15.514;2024-01-06T01:39:18;29.20;;;10.70;;
37507;SDS011;23360;46.936;15.514;2024-01-06T01:41:45;26.00;;;11.65;;
37507;SDS011;23360;46.936;15.514;2024-01-06T01:44:12;30.65;;;12.25;;
37507;SDS011;23360;46.936;15.514;2024-01-06T01:46:39;30.27;;;12.85;;
37507;SDS011;23360;46.936;15.514;2024-01-06T01:49:06;34.25;;;12.45;;
37507;SDS011;23360;46.936;15.514;2024-01-06T01:51:33;25.58;;;11.90;;
37507;SDS011;23360;46.936;15.514;2024-01-06T01:54:02;32.80;;;13.00;;
37507;SDS011;23360;46.936;15.514;2024-01-06T01:56:30;31.85;;;12.50;;
37507;SDS011;23360;46.936;15.514;2024-01-06T01:59:01;36.55;;;12.52;;
37507;SDS011;23360;46.936;15.514;2024-01-06T02:01:32;30.63;;;11.27;;
37507;SDS011;23360;46.936;15.514;2024-01-06T02:03:59;32.00;;;9.95;;
37507;SDS011;23360;46.936;15.514;2024-01-06T02:06:26;37.35;;;10.27;;
37507;SDS011;23360;46.936;15.514;2024-01-06T02:08:53;36.08;;;12.13;;
37507;SDS011;23360;46.936;15.514;2024-01-06T02:11:20;35.75;;;11.60;;
37507;SDS011;23360;46.936;15.514;2024-01-06T02:13:46;38.33;;;11.75;;
37507;SDS011;23360;46.936;15.514;2024-01-06T02:16:13;33.92;;;11.27;;
37507;SDS011;23360;46.936;15.514;2024-01-06T02:18:39;39.10;;;11.35;;
37507;SDS011;23360;46.936;15.514;2024-01-06T02:21:06;32.67;;;11.23;;
37507;SDS011;23360;46.936;15.514;2024-01-06T02:23:34;23.65;;;11.30;;
37507;SDS011;23360;46.936;15.514;2024-01-06T02:26:01;29.02;;;12.15;;
37507;SDS011;23360;46.936;15.514;2024-01-06T02:28:28;37.10;;;11.75;;
37507;SDS011;23360;46.936;15.514;2024-01-06T02:30:56;32.60;;;11.65;;
37507;SDS011;23360;46.936;15.514;2024-01-06T02:33:23;29.02;;;11.95;;
37507;SDS011;23360;46.936;15.514;2024-01-06T02:35:50;34.17;;;12.45;;
37507;SDS011;23360;46.936;15.514;2024-01-06T02:38:17;27.38;;;12.38;;
37507;SDS011;23360;46.936;15.514;2024-01-06T02:40:44;29.88;;;11.40;;
37507;SDS011;23360;46.936;15.514;2024-01-06T02:43:10;30.75;;;10.98;;
37507;SDS011;23360;46.936;15.514;2024-01-06T02:45:37;26.13;;;10.43;;
37507;SDS011;23360;46.936;15.514;2024-01-06T02:48:04;30.95;;;10.73;;
37507;SDS011;23360;46.936;15.514;2024-01-06T02:50:30;31.75;;;11.38;;
37507;SDS011;23360;46.936;15.514;2024-01-06T02:52:57;25.33;;;10.40;;
37507;SDS011;23360;46.936;15.514;2024-01-06T02:55:25;29.27;;;10.20;;
37507;SDS011;23360;46.936;15.514;2024-01-06T02:57:51;38.58;;;10.35;;
37507;SDS011;23360;46.936;15.514;2024-01-06T03:00:18;31.55;;;10.70;;
37507;SDS011;23360;46.936;15.514;2024-01-06T03:02:45;25.33;;;11.23;;
37507;SDS011;23360;46.936;15.514;2024-01-06T03:05:12;34.67;;;11.68;;
37507;SDS011;23360;46.936;15.514;2024-01-06T03:07:38;30.42;;;11.23;;
37507;SDS011;23360;46.936;15.514;2024-01-06T03:10:05;28.95;;;12.30;;
37507;SDS011;23360;46.936;15.514;2024-01-06T03:12:32;32.53;;;12.75;;
37507;SDS011;23360;46.936;15.514;2024-01-06T03:14:59;36.88;;;12.57;;
37507;SDS011;23360;46.936;15.514;2024-01-06T03:17:26;27.05;;;12.75;;
37507;SDS011;23360;46.936;15.514;2024-01-06T03:19:53;35.88;;;12.57;;
37507;SDS011;23360;46.936;15.514;2024-01-06T03:22:19;27.23;;;11.55;;
37507;SDS011;23360;46.936;15.514;2024-01-06T03:24:46;31.45;;;11.00;;
37507;SDS011;23360;46.936;15.514;2024-01-06T03:27:13;25.38;;;10.27;;
37507;SDS011;23360;46.936;15.514;2024-01-06T03:29:40;38.15;;;10.98;;
37507;SDS011;23360;46.936;15.514;2024-01-06T03:32:07;24.60;;;10.48;;
37507;SDS011;23360;46.936;15.514;2024-01-06T03:34:33;34.40;;;11.85;;
37507;SDS011;23360;46.936;15.514;2024-01-06T03:37:00;33.83;;;11.60;;
37507;SDS011;23360;46.936;15.514;2024-01-06T03:39:27;30.17;;;11.30;;
37507;SDS011;23360;46.936;15.514;2024-01-06T03:41:54;35.20;;;11.25;;
37507;SDS011;23360;46.936;15.514;2024-01-06T03:44:20;30.15;;;10.70;;
37507;SDS011;23360;46.936;15.514;2024-01-06T03:46:47;29.25;;;10.57;;
37507;SDS011;23360;46.936;15.514;2024-01-06T03:49:14;34.20;;;11.35;;
37507;SDS011;23360;46.936;15.514;2024-01-06T03:51:41;36.88;;;10.45;;
37507;SDS011;23360;46.936;15.514;2024-01-06T03:54:08;29.88;;;11.32;;
37507;SDS011;23360;46.936;15.514;2024-01-06T03:56:35;24.92;;;10.27;;
37507;SDS011;23360;46.936;15.514;2024-01-06T03:59:02;38.25;;;12.70;;
37507;SDS011;23360;46.936;15.514;2024-01-06T04:01:29;29.38;;;10.93;;
37507;SDS011;23360;46.936;15.514;2024-01-06T04:04:04;27.23;;;11.23;;
37507;SDS011;23360;46.936;15.514;2024-01-06T04:06:31;32.33;;;11.70;;
37507;SDS011;23360;46.936;15.514;2024-01-06T04:08:58;28.52;;;11.27;;
37507;SDS011;23360;46.936;15.514;2024-01-06T04:11:25;34.35;;;12.10;;
37507;SDS011;23360;46.936;15.514;2024-01-06T04:13:51;28.30;;;10.90;;
37507;SDS011;23360;46.936;15.514;2024-01-06T04:16:19;27.63;;;11.07;;
37507;SDS011;23360;46.936;15.514;2024-01-06T04:18:45;32.80;;;11.93;;
37507;SDS011;23360;46.936;15.514;2024-01-06T04:21:12;37.78;;;11.68;;
37507;SDS011;23360;46.936;15.514;2024-01-06T04:23:39;29.70;;;12.25;;
37507;SDS011;23360;46.936;15.514;2024-01-06T04:26:05;28.30;;;13.00;;
37507;SDS011;23360;46.936;15.514;2024-01-06T04:28:33;27.80;;;11.02;;
37507;SDS011;23360;46.936;15.514;2024-01-06T04:30:59;32.40;;;11.55;;
37507;SDS011;23360;46.936;15.514;2024-01-06T04:33:27;34.30;;;10.70;;
37507;SDS011;23360;46.936;15.514;2024-01-06T04:35:54;34.80;;;11.32;;
37507;SDS011;23360;46.936;15.514;2024-01-06T04:38:20;27.42;;;10.75;;
37507;SDS011;23360;46.936;15.514;2024-01-06T04:40:47;27.08;;;9.80;;
37507;SDS011;23360;46.936;15.514;2024-01-06T04:43:14;28.35;;;10.32;;
37507;SDS011;23360;46.936;15.514;2024-01-06T04:45:40;37.90;;;11.18;;
37507;SDS011;23360;46.936;15.514;2024-01-06T04:48:07;36.72;;;11.38;;
37507;SDS011;23360;46.936;15.514;2024-01-06T04:50:34;38.05;;;12.35;;
37507;SDS011;23360;46.936;15.514;2024-01-06T04:53:02;38.85;;;11.15;;
37507;SDS011;23360;46.936;15.514;2024-01-06T04:55:28;25.77;;;10.70;;
37507;SDS011;23360;46.936;15.514;2024-01-06T04:57:55;36.47;;;11.00;;
37507;SDS011;23360;46.936;15.514;2024-01-06T05:00:22;31.35;;;10.95;;
37507;SDS011;23360;46.936;15.514;2024-01-06T05:02:48;33.20;;;10.82;;
37507;SDS011;23360;46.936;15.514;2024-01-06T05:05:16;34.22;;;9.90;;
37507;SDS011;23360;46.936;15.514;2024-01-06T05:07:42;26.05;;;9.55;;
37507;SDS011;23360;46.936;15.514;2024-01-06T05:10:09;33.72;;;11.18;;
37507;SDS011;23360;46.936;15.514;2024-01-06T05:12:36;47.00;;;10.95;;
37507;SDS011;23360;46.936;15.514;2024-01-06T05:15:02;32.60;;;10.20;;
37507;SDS011;23360;46.936;15.514;2024-01-06T05:17:29;32.38;;;11.73;;
37507;SDS011;23360;46.936;15.514;2024-01-06T05:19:56;35.72;;;11.40;;
37507;SDS011;23360;46.936;15.514;2024-01-06T05:22:23;31.83;;;9.80;;
37507;SDS011;23360;46.936;15.514;2024-01-06T05:24:50;37.53;;;10.75;;
37507;SDS011;23360;46.936;15.514;2024-01-06T05:27:19;31.85;;;10.55;;
37507;SDS011;23360;46.936;15.514;2024-01-06T05:29:46;29.02;;;9.98;;
37507;SDS011;23360;46.936;15.514;2024-01-06T05:32:16;21.20;;;10.10;;
37507;SDS011;23360;46.936;15.514;2024-01-06T05:34:42;36.42;;;11.23;;
37507;SDS011;23360;46.936;15.514;2024-01-06T05:37:09;30.58;;;11.02;;
37507;SDS011;23360;46.936;15.514;2024-01-06T05:39:37;50.78;;;11.60;;
37507;SDS011;23360;46.936;15.514;2024-01-06T05:42:05;35.50;;;11.25;;
37507;SDS011;23360;46.936;15.514;2024-01-06T05:44:31;34.58;;;11.95;;
37507;SDS011;23360;46.936;15.514;2024-01-06T05:47:04;26.15;;;10.98;;
37507;SDS011;23360;46.936;15.514;2024-01-06T05:49:31;39.33;;;11.57;;
37507;SDS011;23360;46.936;15.514;2024-01-06T05:51:57;28.83;;;11.52;;
37507;SDS011;23360;46.936;15.514;2024-01-06T05:54:24;39.55;;;11.68;;
37507;SDS011;23360;46.936;15.514;2024-01-06T05:56:51;31.42;;;10.80;;
37507;SDS011;23360;46.936;15.514;2024-01-06T05:59:18;30.58;;;11.40;;
37507;SDS011;23360;46.936;15.514;2024-01-06T06:01:45;28.48;;;11.93;;
37507;SDS011;23360;46.936;15.514;2024-01-06T06:04:11;34.83;;;10.63;;
37507;SDS011;23360;46.936;15.514;2024-01-06T06:06:38;33.60;;;11.57;;
37507;SDS011;23360;46.936;15.514;2024-01-06T06:09:05;30.33;;;12.10;;
37507;SDS011;23360;46.936;15.514;2024-01-06T06:11:36;30.55;;;12.07;;
37507;SDS011;23360;46.936;15.514;2024-01-06T06:14:02;35.88;;;11.95;;
37507;SDS011;23360;46.936;15.514;2024-01-06T06:16:29;31.52;;;12.55;;
37507;SDS011;23360;46.936;15.514;2024-01-06T06:18:56;46.33;;;13.98;;
37507;SDS011;23360;46.936;15.514;2024-01-06T06:21:23;37.00;;;14.18;;
37507;SDS011;23360;46.936;15.514;2024-01-06T06:23:50;36.88;;;12.98;;
37507;SDS011;23360;46.936;15.514;2024-01-06T06:26:16;31.17;;;12.73;;
37507;SDS011;23360;46.936;15.514;2024-01-06T06:28:43;28.88;;;11.80;;
37507;SDS011;23360;46.936;15.514;2024-01-06T06:31:09;34.38;;;12.38;;
37507;SDS011;23360;46.936;15.514;2024-01-06T06:33:37;28.38;;;11.70;;
37507;SDS011;23360;46.936;15.514;2024-01-06T06:36:03;28.00;;;10.95;;
37507;SDS011;23360;46.936;15.514;2024-01-06T06:38:30;30.73;;;11.48;;
37507;SDS011;23360;46.936;15.514;2024-01-06T06:40:57;36.08;;;12.45;;
37507;SDS011;23360;46.936;15.514;2024-01-06T06:43:24;32.30;;;12.05;;
37507;SDS011;23360;46.936;15.514;2024-01-06T06:45:50;34.22;;;12.32;;
37507;SDS011;23360;46.936;15.514;2024-01-06T06:48:17;32.85;;;12.65;;
37507;SDS011;23360;46.936;15.514;2024-01-06T06:50:44;39.25;;;14.02;;
37507;SDS011;23360;46.936;15.514;2024-01-06T06:53:11;31.65;;;13.57;;
37507;SDS011;23360;46.936;15.514;2024-01-06T06:55:39;28.55;;;12.32;;
37507;SDS011;23360;46.936;15.514;2024-01-06T06:58:07;30.35;;;12.00;;
37507;SDS011;23360;46.936;15.514;2024-01-06T07:00:34;33.80;;;13.68;;
37507;SDS011;23360;46.936;15.514;2024-01-06T07:03:01;37.03;;;14.23;;
37507;SDS011;23360;46.936;15.514;2024-01-06T07:05:28;36.40;;;13.52;;
37507;SDS011;23360;46.936;15.514;2024-01-06T07:07:55;43.35;;;14.45;;
37507;SDS011;23360;46.936;15.514;2024-01-06T07:10:22;31.85;;;12.57;;
37507;SDS011;23360;46.936;15.514;2024-01-06T07:12:49;39.28;;;13.73;;
37507;SDS011;23360;46.936;15.514;2024-01-06T07:15:16;39.10;;;13.00;;
37507;SDS011;23360;46.936;15.514;2024-01-06T07:17:43;33.28;;;12.98;;
37507;SDS011;23360;46.936;15.514;2024-01-06T07:20:12;44.08;;;14.48;;
37507;SDS011;23360;46.936;15.514;2024-01-06T07:22:38;34.22;;;14.68;;
37507;SDS011;23360;46.936;15.514;2024-01-06T07:25:05;33.67;;;14.55;;
37507;SDS011;23360;46.936;15.514;2024-01-06T07:27:33;30.50;;;13.63;;
37507;SDS011;23360;46.936;15.514;2024-01-06T07:30:00;27.08;;;13.80;;
37507;SDS011;23360;46.936;15.514;2024-01-06T07:32:27;30.80;;;12.20;;
37507;SDS011;23360;46.936;15.514;2024-01-06T07:34:54;34.30;;;13.25;;
37507;SDS011;23360;46.936;15.514;2024-01-06T07:37:21;37.90;;;12.75;;
37507;SDS011;23360;46.936;15.514;2024-01-06T07:39:47;35.28;;;13.00;;
37507;SDS011;23360;46.936;15.514;2024-01-06T07:42:14;33.47;;;13.35;;
37507;SDS011;23360;46.936;15.514;2024-01-06T07:44:41;27.50;;;11.93;;
37507;SDS011;23360;46.936;15.514;2024-01-06T07:47:08;33.03;;;13.05;;
37507;SDS011;23360;46.936;15.514;2024-01-06T07:49:34;39.13;;;13.73;;
37507;SDS011;23360;46.936;15.514;2024-01-06T07:52:01;39.30;;;13.20;;
37507;SDS011;23360;46.936;15.514;2024-01-06T07:54:28;36.78;;;14.07;;
37507;SDS011;23360;46.936;15.514;2024-01-06T07:56:55;47.00;;;14.55;;
37507;SDS011;23360;46.936;15.514;2024-01-06T07:59:21;35.20;;;14.95;;
37507;SDS011;23360;46.936;15.514;2024-01-06T08:01:48;31.67;;;12.85;;
37507;SDS011;23360;46.936;15.514;2024-01-06T08:04:15;31.20;;;11.32;;
37507;SDS011;23360;46.936;15.514;2024-01-06T08:06:42;35.40;;;12.27;;
37507;SDS011;23360;46.936;15.514;2024-01-06T08:09:09;34.58;;;11.52;;
37507;SDS011;23360;46.936;15.514;2024-01-06T08:11:36;26.15;;;11.50;;
37507;SDS011;23360;46.936;15.514;2024-01-06T08:14:02;35.17;;;11.63;;
37507;SDS011;23360;46.936;15.514;2024-01-06T08:16:30;28.20;;;10.70;;
37507;SDS011;23360;46.936;15.514;2024-01-06T08:18:56;30.15;;;12.20;;
37507;SDS011;23360;46.936;15.514;2024-01-06T08:21:23;37.03;;;15.07;;
37507;SDS011;23360;46.936;15.514;2024-01-06T08:23:50;51.03;;;23.50;;
37507;SDS011;23360;46.936;15.514;2024-01-06T08:26:17;47.05;;;23.35;;
37507;SDS011;23360;46.936;15.514;2024-01-06T08:28:44;26.85;;;11.40;;
37507;SDS011;23360;46.936;15.514;2024-01-06T08:31:10;26.70;;;10.30;;
37507;SDS011;23360;46.936;15.514;2024-01-06T08:33:37;35.78;;;10.00;;
37507;SDS011;23360;46.936;15.514;2024-01-06T08:36:05;30.65;;;9.43;;
37507;SDS011;23360;46.936;15.514;2024-01-06T08:38:31;30.70;;;10.02;;
37507;SDS011;23360;46.936;15.514;2024-01-06T08:40:58;29.42;;;11.27;;
37507;SDS011;23360;46.936;15.514;2024-01-06T08:43:25;26.02;;;9.75;;
37507;SDS011;23360;46.936;15.514;2024-01-06T08:45:52;35.33;;;10.65;;
37507;SDS011;23360;46.936;15.514;2024-01-06T08:48:18;23.25;;;8.90;;
37507;SDS011;23360;46.936;15.514;2024-01-06T08:50:46;26.20;;;9.93;;
37507;SDS011;23360;46.936;15.514;2024-01-06T08:53:13;25.92;;;8.90;;
37507;SDS011;23360;46.936;15.514;2024-01-06T08:55:39;20.00;;;8.52;;
37507;SDS011;23360;46.936;15.514;2024-01-06T08:58:10;27.83;;;10.27;;
37507;SDS011;23360;46.936;15.514;2024-01-06T09:00:36;40.13;;;9.88;;
37507;SDS011;23360;46.936;15.514;2024-01-06T09:03:03;32.17;;;10.00;;
37507;SDS011;23360;46.936;15.514;2024-01-06T09:05:30;30.27;;;9.85;;
37507;SDS011;23360;46.936;15.514;2024-01-06T09:07:57;28.48;;;10.00;;
37507;SDS011;23360;46.936;15.514;2024-01-06T09:10:23;27.65;;;10.43;;
37507;SDS011;23360;46.936;15.514;2024-01-06T09:12:50;24.85;;;9.98;;
37507;SDS011;23360;46.936;15.514;2024-01-06T09:15:17;28.45;;;9.55;;
37507;SDS011;23360;46.936;15.514;2024-01-06T09:17:44;27.33;;;8.10;;
37507;SDS011;23360;46.936;15.514;2024-01-06T09:20:10;41.78;;;9.20;;
37507;SDS011;23360;46.936;15.514;2024-01-06T09:22:37;18.35;;;8.13;;
37507;SDS011;23360;46.936;15.514;2024-01-06T09:25:04;21.98;;;8.82;;
37507;SDS011;23360;46.936;15.514;2024-01-06T09:27:31;24.40;;;8.38;;
37507;SDS011;23360;46.936;15.514;2024-01-06T09:29:59;24.98;;;9.63;;
37507;SDS011;23360;46.936;15.514;2024-01-06T09:32:26;20.33;;;8.63;;
37507;SDS011;23360;46.936;15.514;2024-01-06T09:34:52;26.92;;;9.07;;
37507;SDS011;23360;46.936;15.514;2024-01-06T09:37:19;22.60;;;9.50;;
37507;SDS011;23360;46.936;15.514;2024-01-06T09:39:46;23.27;;;8.93;;
37507;SDS011;23360;46.936;15.514;2024-01-06T09:42:13;26.15;;;9.55;;
37507;SDS011;23360;46.936;15.514;2024-01-06T09:44:40;29.40;;;11.60;;
37507;SDS011;23360;46.936;15.514;2024-01-06T09:47:06;31.70;;;11.95;;
37507;SDS011;23360;46.936;15.514;2024-01-06T09:49:35;21.17;;;10.27;;
37507;SDS011;23360;46.936;15.514;2024-01-06T09:52:10;27.77;;;10.63;;
37507;SDS011;23360;46.936;15.514;2024-01-06T09:54:39;32.78;;;11.75;;
37507;SDS011;23360;46.936;15.514;2024-01-06T09:57:07;25.88;;;10.75;;
37507;SDS011;23360;46.936;15.514;2024-01-06T09:59:34;28.55;;;12.48;;
37507;SDS011;23360;46.936;15.514;2024-01-06T10:02:03;28.50;;;12.23;;
37507;SDS011;23360;46.936;15.514;2024-01-06T10:04:30;25.20;;;11.48;;
37507;SDS011;23360;46.936;15.514;2024-01-06T10:06:57;26.25;;;11.13;;
37507;SDS011;23360;46.936;15.514;2024-01-06T10:09:27;40.28;;;15.45;;
37507;SDS011;23360;46.936;15.514;2024-01-06T10:11:55;25.50;;;12.50;;
37507;SDS011;23360;46.936;15.514;2024-01-06T10:14:23;27.25;;;12.57;;
37507;SDS011;23360;46.936;15.514;2024-01-06T10:16:50;28.15;;;12.52;;
37507;SDS011;23360;46.936;15.514;2024-01-06T10:19:17;27.92;;;12.77;;
37507;SDS011;23360;46.936;15.514;2024-01-06T10:21:44;84.15;;;16.15;;
37507;SDS011;23360;46.936;15.514;2024-01-06T10:24:11;40.85;;;14.02;;
37507;SDS011;23360;46.936;15.514;2024-01-06T10:26:38;29.38;;;12.75;;
37507;SDS011;23360;46.936;15.514;2024-01-06T10:29:06;34.33;;;12.63;;
37507;SDS011;23360;46.936;15.514;2024-01-06T10:31:33;38.72;;;16.42;;
37507;SDS011;23360;46.936;15.514;2024-01-06T10:34:00;168.57;;;19.50;;
37507;SDS011;23360;46.936;15.514;2024-01-06T10:36:27;242.75;;;20.20;;
37507;SDS011;23360;46.936;15.514;2024-01-06T10:38:54;150.68;;;18.33;;
37507;SDS011;23360;46.936;15.514;2024-01-06T10:41:24;129.52;;;18.20;;
37507;SDS011;23360;46.936;15.514;2024-01-06T10:43:51;68.65;;;16.00;;
37507;SDS011;23360;46.936;15.514;2024-01-06T10:46:18;220.43;;;22.42;;
37507;SDS011;23360;46.936;15.514;2024-01-06T10:48:45;209.13;;;22.05;;
37507;SDS011;23360;46.936;15.514;2024-01-06T10:51:12;49.55;;;15.02;;
37507;SDS011;23360;46.936;15.514;2024-01-06T10:53:41;53.03;;;14.63;;
37507;SDS011;23360;46.936;15.514;2024-01-06T10:56:08;196.63;;;22.10;;
37507;SDS011;23360;46.936;15.514;2024-01-06T10:58:36;33.63;;;14.88;;
37507;SDS011;23360;46.936;15.514;2024-01-06T11:01:09;33.50;;;17.05;;
37507;SDS011;23360;46.936;15.514;2024-01-06T11:03:36;32.97;;;12.27;;
37507;SDS011;23360;46.936;15.514;2024-01-06T11:06:05;23.67;;;12.25;;
37507;SDS011;23360;46.936;15.514;2024-01-06T11:08:32;25.70;;;12.82;;
37507;SDS011;23360;46.936;15.514;2024-01-06T11:10:59;41.10;;;14.15;;
37507;SDS011;23360;46.936;15.514;2024-01-06T11:13:26;26.58;;;11.90;;
37507;SDS011;23360;46.936;15.514;2024-01-06T11:15:53;28.90;;;13.30;;
37507;SDS011;23360;46.936;15.514;2024-01-06T11:23:44;23.05;;;11.77;;
37507;SDS011;23360;46.936;15.514;2024-01-06T11:26:11;24.58;;;10.80;;
37507;SDS011;23360;46.936;15.514;2024-01-06T11:28:47;35.45;;;12.30;;
37507;SDS011;23360;46.936;15.514;2024-01-06T11:33:43;24.40;;;11.57;;
37507;SDS011;23360;46.936;15.514;2024-01-06T11:36:11;23.48;;;11.82;;
37507;SDS011;23360;46.936;15.514;2024-01-06T11:38:38;57.80;;;18.05;;
37507;SDS011;23360;46.936;15.514;2024-01-06T11:41:09;81.97;;;20.98;;
37507;SDS011;23360;46.936;15.514;2024-01-06T11:43:55;200.05;;;24.75;;
37507;SDS011;23360;46.936;15.514;2024-01-06T11:46:22;474.13;;;36.28;;
37507;SDS011;23360;46.936;15.514;2024-01-06T11:48:49;42.22;;;19.20;;
37507;SDS011;23360;46.936;15.514;2024-01-06T11:51:18;41.30;;;18.63;;
37507;SDS011;23360;46.936;15.514;2024-01-06T11:53:45;40.22;;;19.45;;
37507;SDS011;23360;46.936;15.514;2024-01-06T11:56:12;43.83;;;18.77;;
37507;SDS011;23360;46.936;15.514;2024-01-06T11:58:41;41.72;;;18.17;;
37507;SDS011;23360;46.936;15.514;2024-01-06T12:01:08;49.95;;;19.17;;
37507;SDS011;23360;46.936;15.514;2024-01-06T12:03:35;89.53;;;21.83;;
37507;SDS011;23360;46.936;15.514;2024-01-06T12:06:02;108.30;;;23.42;;
37507;SDS011;23360;46.936;15.514;2024-01-06T12:08:29;43.08;;;20.10;;
37507;SDS011;23360;46.936;15.514;2024-01-06T12:11:02;44.60;;;17.45;;
37507;SDS011;23360;46.936;15.514;2024-01-06T12:13:29;36.50;;;14.23;;
37507;SDS011;23360;46.936;15.514;2024-01-06T12:15:56;32.08;;;14.88;;
37507;SDS011;23360;46.936;15.514;2024-01-06T12:18:23;34.20;;;13.30;;
37507;SDS011;23360;46.936;15.514;2024-01-06T12:20:52;35.80;;;13.75;;
37507;SDS011;23360;46.936;15.514;2024-01-06T12:23:26;39.10;;;13.77;;
37507;SDS011;23360;46.936;15.514;2024-01-06T12:25:54;29.75;;;11.57;;
37507;SDS011;23360;46.936;15.514;2024-01-06T12:28:21;33.17;;;13.32;;
37507;SDS011;23360;46.936;15.514;2024-01-06T12:30:49;33.83;;;13.02;;
37507;SDS011;23360;46.936;15.514;2024-01-06T12:33:16;31.95;;;11.85;;
37507;SDS011;23360;46.936;15.514;2024-01-06T12:35:43;48.50;;;15.13;;
37507;SDS011;23360;46.936;15.514;2024-01-06T12:38:10;50.00;;;16.65;;
37507;SDS011;23360;46.936;15.514;2024-01-06T12:40:36;41.08;;;17.13;;
37507;SDS011;23360;46.936;15.514;2024-01-06T12:43:04;39.53;;;16.65;;
37507;SDS011;23360;46.936;15.514;2024-01-06T12:45:31;41.13;;;17.75;;
37507;SDS011;23360;46.936;15.514;2024-01-06T12:47:58;45.25;;;18.40;;
37507;SDS011;23360;46.936;15.514;2024-01-06T12:50:26;51.92;;;20.88;;
37507;SDS011;23360;46.936;15.514;2024-01-06T12:52:53;68.00;;;20.63;;
37507;SDS011;23360;46.936;15.514;2024-01-06T12:55:20;70.05;;;21.60;;
37507;SDS011;23360;46.936;15.514;2024-01-06T12:57:48;60.17;;;23.42;;
37507;SDS011;23360;46.936;15.514;2024-01-06T13:00:15;59.13;;;22.65;;
37507;SDS011;23360;46.936;15.514;2024-01-06T13:02:42;53.13;;;22.17;;
37507;SDS011;23360;46.936;15.514;2024-01-06T13:05:09;48.03;;;21.60;;
37507;SDS011;23360;46.936;15.514;2024-01-06T13:07:36;55.33;;;22.88;;
37507;SDS011;23360;46.936;15.514;2024-01-06T13:10:03;63.97;;;24.23;;
37507;SDS011;23360;46.936;15.514;2024-01-06T13:12:30;60.10;;;24.40;;
37507;SDS011;23360;46.936;15.514;2024-01-06T13:14:57;50.80;;;22.88;;
37507;SDS011;23360;46.936;15.514;2024-01-06T13:17:24;49.13;;;23.10;;
37507;SDS011;23360;46.936;15.514;2024-01-06T13:19:51;47.40;;;20.33;;
37507;SDS011;23360;46.936;15.514;2024-01-06T13:22:17;71.85;;;24.10;;
37507;SDS011;23360;46.936;15.514;2024-01-06T13:24:46;85.07;;;28.20;;
37507;SDS011;23360;46.936;15.514;2024-01-06T13:27:18;81.28;;;26.90;;
37507;SDS011;23360;46.936;15.514;2024-01-06T13:29:45;312.25;;;35.95;;
37507;SDS011;23360;46.936;15.514;2024-01-06T13:32:12;89.07;;;27.17;;
37507;SDS011;23360;46.936;15.514;2024-01-06T13:34:40;63.92;;;24.05;;
37507;SDS011;23360;46.936;15.514;2024-01-06T13:37:07;47.78;;;22.17;;
37507;SDS011;23360;46.936;15.514;2024-01-06T13:39:33;53.08;;;22.27;;
37507;SDS011;23360;46.936;15.514;2024-01-06T13:42:00;59.22;;;23.67;;
37507;SDS011;23360;46.936;15.514;2024-01-06T13:44:29;46.45;;;18.92;;
37507;SDS011;23360;46.936;15.514;2024-01-06T13:46:56;51.58;;;20.50;;
37507;SDS011;23360;46.936;15.514;2024-01-06T13:49:23;53.65;;;19.05;;
37507;SDS011;23360;46.936;15.514;2024-01-06T13:51:52;71.20;;;19.92;;
37507;SDS011;23360;46.936;15.514;2024-01-06T13:54:19;58.25;;;21.38;;
37507;SDS011;23360;46.936;15.514;2024-01-06T13:56:46;44.60;;;19.00;;
37507;SDS011;23360;46.936;15.514;2024-01-06T13:59:13;46.72;;;20.38;;
37507;SDS011;23360;46.936;15.514;2024-01-06T14:01:39;60.08;;;21.17;;
37507;SDS011;23360;46.936;15.514;2024-01-06T14:04:06;54.92;;;22.17;;
37507;SDS011;23360;46.936;15.514;2024-01-06T14:06:33;46.55;;;20.17;;
37507;SDS011;23360;46.936;15.514;2024-01-06T14:09:00;45.08;;;19.45;;
37507;SDS011;23360;46.936;15.514;2024-01-06T14:11:27;43.13;;;18.23;;
37507;SDS011;23360;46.936;15.514;2024-01-06T14:13:53;48.03;;;19.67;;
37507;SDS011;23360;46.936;15.514;2024-01-06T14:16:20;47.22;;;19.40;;